sensor_id;sensor_type;location;lat;lon;timestamp;pressure;altitude;pressure_sealevel;temperature;humidity
74675;BME280;63200;48.810;12.352;2022-09-09T00:03:45;97274.22;;;11.50;75.00
74675;BME280;63200;48.810;12.352;2022-09-09T00:11:56;97273.16;;;11.32;74.98
74675;BME280;63200;48.810;12.352;2022-09-09T00:17:02;97256.63;;;11.29;74.54
74675;BME280;63200;48.810;12.352;2022-09-09T00:19:41;97265.44;;;11.21;74.46
74675;BME280;63200;48.810;12.352;2022-09-09T00:22:19;97262.03;;;11.10;74.29
74675;BME280;63200;48.810;12.352;2022-09-09T00:25:12;97266.25;;;11.02;74.34
74675;BME280;63200;48.810;12.352;2022-09-09T00:27:47;97263.59;;;10.97;74.56
74675;BME280;63200;48.810;12.352;2022-09-09T00:30:19;97265.28;;;10.93;74.81
74675;BME280;63200;48.810;12.352;2022-09-09T00:32:48;97254.69;;;10.91;74.76
74675;BME280;63200;48.810;12.352;2022-09-09T00:35:34;97249.66;;;11.04;75.08
74675;BME280;63200;48.810;12.352;2022-09-09T00:38:16;97253.09;;;11.09;75.00
74675;BME280;63200;48.810;12.352;2022-09-09T00:43:32;97259.25;;;10.96;75.02
74675;BME280;63200;48.810;12.352;2022-09-09T00:49:15;97261.25;;;10.90;75.09
74675;BME280;63200;48.810;12.352;2022-09-09T00:52:08;97264.22;;;10.89;74.86
74675;BME280;63200;48.810;12.352;2022-09-09T00:57:33;97261.72;;;10.73;75.19
74675;BME280;63200;48.810;12.352;2022-09-09T01:11:26;97258.59;;;10.61;75.86
74675;BME280;63200;48.810;12.352;2022-09-09T01:14:18;97267.03;;;10.59;75.70
74675;BME280;63200;48.810;12.352;2022-09-09T01:16:45;97267.03;;;10.59;75.99
74675;BME280;63200;48.810;12.352;2022-09-09T01:19:27;97245.97;;;10.51;75.97
74675;BME280;63200;48.810;12.352;2022-09-09T01:22:10;97262.69;;;10.58;75.96
74675;BME280;63200;48.810;12.352;2022-09-09T01:27:34;97267.84;;;10.60;76.08
74675;BME280;63200;48.810;12.352;2022-09-09T01:30:07;97266.75;;;10.61;75.96
74675;BME280;63200;48.810;12.352;2022-09-09T01:32:41;97264.03;;;10.61;75.98
74675;BME280;63200;48.810;12.352;2022-09-09T01:35:15;97272.81;;;10.53;75.58
74675;BME280;63200;48.810;12.352;2022-09-09T01:37:46;97271.53;;;10.45;75.82
74675;BME280;63200;48.810;12.352;2022-09-09T01:40:11;97266.22;;;10.34;75.49
74675;BME280;63200;48.810;12.352;2022-09-09T01:42:37;97277.91;;;10.30;75.46
74675;BME280;63200;48.810;12.352;2022-09-09T01:45:03;97277.06;;;10.34;76.04
74675;BME280;63200;48.810;12.352;2022-09-09T01:47:29;97271.31;;;10.41;75.98
74675;BME280;63200;48.810;12.352;2022-09-09T01:49:54;97261.16;;;10.52;76.38
74675;BME280;63200;48.810;12.352;2022-09-09T01:52:19;97259.97;;;10.58;76.01
74675;BME280;63200;48.810;12.352;2022-09-09T01:54:45;97259.91;;;10.63;76.08
74675;BME280;63200;48.810;12.352;2022-09-09T01:57:19;97256.84;;;10.70;76.01
74675;BME280;63200;48.810;12.352;2022-09-09T02:00:06;97247.72;;;10.61;76.01
74675;BME280;63200;48.810;12.352;2022-09-09T02:05:39;97257.63;;;10.76;76.51
74675;BME280;63200;48.810;12.352;2022-09-09T02:08:42;97257.75;;;10.84;76.61
74675;BME280;63200;48.810;12.352;2022-09-09T02:11:11;97266.13;;;10.88;76.69
74675;BME280;63200;48.810;12.352;2022-09-09T02:13:38;97246.75;;;10.76;76.55
74675;BME280;63200;48.810;12.352;2022-09-09T02:16:08;97269.38;;;10.90;76.34
74675;BME280;63200;48.810;12.352;2022-09-09T02:18:40;97270.78;;;10.88;76.53
74675;BME280;63200;48.810;12.352;2022-09-09T02:21:11;97278.91;;;10.88;76.90
74675;BME280;63200;48.810;12.352;2022-09-09T02:23:38;97244.66;;;10.67;76.84
74675;BME280;63200;48.810;12.352;2022-09-09T02:26:05;97258.81;;;10.64;76.72
74675;BME280;63200;48.810;12.352;2022-09-09T02:28:34;97283.44;;;10.73;76.77
74675;BME280;63200;48.810;12.352;2022-09-09T02:31:01;97283.44;;;10.73;76.86
74675;BME280;63200;48.810;12.352;2022-09-09T02:33:31;97271.06;;;10.62;76.96
74675;BME280;63200;48.810;12.352;2022-09-09T02:35:59;97265.50;;;10.53;76.57
74675;BME280;63200;48.810;12.352;2022-09-09T02:38:31;97246.03;;;10.46;76.67
74675;BME280;63200;48.810;12.352;2022-09-09T02:40:58;97277.25;;;10.67;76.58
74675;BME280;63200;48.810;12.352;2022-09-09T02:43:24;97281.38;;;10.65;76.66
74675;BME280;63200;48.810;12.352;2022-09-09T02:48:36;97279.81;;;10.59;76.43
74675;BME280;63200;48.810;12.352;2022-09-09T02:51:24;97283.66;;;10.53;76.06
74675;BME280;63200;48.810;12.352;2022-09-09T02:54:17;97276.91;;;10.50;75.88
74675;BME280;63200;48.810;12.352;2022-09-09T02:56:50;97250.47;;;10.37;75.66
74675;BME280;63200;48.810;12.352;2022-09-09T02:59:17;97260.78;;;10.34;75.71
74675;BME280;63200;48.810;12.352;2022-09-09T03:01:43;97255.69;;;10.28;75.74
74675;BME280;63200;48.810;12.352;2022-09-09T03:04:09;97279.72;;;10.40;75.88
74675;BME280;63200;48.810;12.352;2022-09-09T03:06:34;97276.22;;;10.39;76.01
74675;BME280;63200;48.810;12.352;2022-09-09T03:09:00;97263.19;;;10.41;75.90
74675;BME280;63200;48.810;12.352;2022-09-09T03:11:27;97249.69;;;10.31;75.98
74675;BME280;63200;48.810;12.352;2022-09-09T03:13:53;97276.16;;;10.44;75.96
74675;BME280;63200;48.810;12.352;2022-09-09T03:16:21;97261.63;;;10.30;75.73
74675;BME280;63200;48.810;12.352;2022-09-09T03:18:47;97233.06;;;10.13;75.99
74675;BME280;63200;48.810;12.352;2022-09-09T03:21:12;97275.13;;;10.40;76.01
74675;BME280;63200;48.810;12.352;2022-09-09T03:23:37;97272.38;;;10.45;76.22
74675;BME280;63200;48.810;12.352;2022-09-09T03:26:03;97259.88;;;10.44;75.96
74675;BME280;63200;48.810;12.352;2022-09-09T03:28:28;97263.97;;;10.42;76.13
74675;BME280;63200;48.810;12.352;2022-09-09T03:31:04;97272.41;;;10.40;75.80
74675;BME280;63200;48.810;12.352;2022-09-09T03:33:30;97223.69;;;10.00;75.67
74675;BME280;63200;48.810;12.352;2022-09-09T03:35:56;97229.59;;;10.08;75.95
74675;BME280;63200;48.810;12.352;2022-09-09T03:38:23;97270.03;;;10.33;75.92
74675;BME280;63200;48.810;12.352;2022-09-09T03:40:50;97271.38;;;10.36;76.38
74675;BME280;63200;48.810;12.352;2022-09-09T03:43:16;97238.94;;;10.21;76.67
74675;BME280;63200;48.810;12.352;2022-09-09T03:45:45;97259.41;;;10.37;76.28
74675;BME280;63200;48.810;12.352;2022-09-09T03:48:13;97234.66;;;10.14;75.78
74675;BME280;63200;48.810;12.352;2022-09-09T03:50:38;97255.22;;;10.21;75.75
74675;BME280;63200;48.810;12.352;2022-09-09T03:53:03;97254.81;;;10.08;75.35
74675;BME280;63200;48.810;12.352;2022-09-09T03:55:31;97249.44;;;10.03;75.59
74675;BME280;63200;48.810;12.352;2022-09-09T03:57:56;97253.25;;;10.02;75.72
74675;BME280;63200;48.810;12.352;2022-09-09T04:00:21;97230.72;;;9.72;75.75
74675;BME280;63200;48.810;12.352;2022-09-09T04:02:47;97258.28;;;9.84;75.69
74675;BME280;63200;48.810;12.352;2022-09-09T04:05:12;97195.94;;;9.55;76.01
74675;BME280;63200;48.810;12.352;2022-09-09T04:07:38;97250.81;;;10.00;75.71
74675;BME280;63200;48.810;12.352;2022-09-09T04:10:04;97255.38;;;10.05;75.97
74675;BME280;63200;48.810;12.352;2022-09-09T04:12:29;97254.28;;;10.06;75.57
74675;BME280;63200;48.810;12.352;2022-09-09T04:14:54;97237.34;;;9.90;75.79
74675;BME280;63200;48.810;12.352;2022-09-09T04:17:20;97244.22;;;10.07;76.05
74675;BME280;63200;48.810;12.352;2022-09-09T04:19:45;97250.94;;;10.14;76.02
74675;BME280;63200;48.810;12.352;2022-09-09T04:22:11;97236.97;;;10.02;75.68
74675;BME280;63200;48.810;12.352;2022-09-09T04:24:36;97243.38;;;10.11;76.22
74675;BME280;63200;48.810;12.352;2022-09-09T04:27:02;97248.41;;;10.23;76.18
74675;BME280;63200;48.810;12.352;2022-09-09T04:29:27;97253.84;;;10.23;75.56
74675;BME280;63200;48.810;12.352;2022-09-09T04:31:53;97261.44;;;10.21;75.50
74675;BME280;63200;48.810;12.352;2022-09-09T04:34:18;97258.78;;;10.16;75.92
74675;BME280;63200;48.810;12.352;2022-09-09T04:36:43;97261.50;;;10.16;75.71
74675;BME280;63200;48.810;12.352;2022-09-09T04:39:09;97267.22;;;10.14;75.55
74675;BME280;63200;48.810;12.352;2022-09-09T04:41:34;97244.69;;;9.90;75.42
74675;BME280;63200;48.810;12.352;2022-09-09T04:44:01;97257.38;;;9.94;75.37
74675;BME280;63200;48.810;12.352;2022-09-09T04:46:26;97254.22;;;9.87;75.17
74675;BME280;63200;48.810;12.352;2022-09-09T04:48:52;97252.34;;;9.82;75.25
74675;BME280;63200;48.810;12.352;2022-09-09T04:51:18;97228.13;;;9.62;75.52
74675;BME280;63200;48.810;12.352;2022-09-09T04:53:43;97247.28;;;9.71;75.89
74675;BME280;63200;48.810;12.352;2022-09-09T04:56:11;97243.94;;;9.79;75.81
74675;BME280;63200;48.810;12.352;2022-09-09T04:58:37;97231.03;;;9.71;75.58
74675;BME280;63200;48.810;12.352;2022-09-09T05:01:07;97251.00;;;9.80;75.65
74675;BME280;63200;48.810;12.352;2022-09-09T05:03:33;97258.28;;;9.84;75.99
74675;BME280;63200;48.810;12.352;2022-09-09T05:06:05;97262.03;;;9.89;76.00
74675;BME280;63200;48.810;12.352;2022-09-09T05:08:31;97240.09;;;9.85;75.92
74675;BME280;63200;48.810;12.352;2022-09-09T05:10:57;97246.91;;;9.82;75.30
74675;BME280;63200;48.810;12.352;2022-09-09T05:13:23;97236.25;;;9.62;75.41
74675;BME280;63200;48.810;12.352;2022-09-09T05:15:52;97260.97;;;9.90;75.48
74675;BME280;63200;48.810;12.352;2022-09-09T05:18:18;97267.09;;;10.00;76.15
74675;BME280;63200;48.810;12.352;2022-09-09T05:20:43;97246.69;;;10.08;76.18
74675;BME280;63200;48.810;12.352;2022-09-09T05:23:08;97245.47;;;10.20;76.37
74675;BME280;63200;48.810;12.352;2022-09-09T05:25:36;97236.13;;;10.31;75.93
74675;BME280;63200;48.810;12.352;2022-09-09T05:28:01;97226.38;;;10.30;75.85
74675;BME280;63200;48.810;12.352;2022-09-09T05:30:27;97269.06;;;10.48;75.83
74675;BME280;63200;48.810;12.352;2022-09-09T05:32:55;97265.59;;;10.43;76.25
74675;BME280;63200;48.810;12.352;2022-09-09T05:35:21;97271.59;;;10.40;76.92
74675;BME280;63200;48.810;12.352;2022-09-09T05:37:46;97275.94;;;10.41;76.87
74675;BME280;63200;48.810;12.352;2022-09-09T05:40:13;97278.34;;;10.42;76.37
74675;BME280;63200;48.810;12.352;2022-09-09T05:42:38;97260.78;;;10.34;76.44
74675;BME280;63200;48.810;12.352;2022-09-09T05:45:05;97279.31;;;10.52;76.49
74675;BME280;63200;48.810;12.352;2022-09-09T05:47:30;97285.59;;;10.52;76.38
74675;BME280;63200;48.810;12.352;2022-09-09T05:49:56;97274.50;;;10.48;76.52
74675;BME280;63200;48.810;12.352;2022-09-09T05:52:21;97276.06;;;10.55;76.53
74675;BME280;63200;48.810;12.352;2022-09-09T05:54:47;97277.84;;;10.64;75.99
74675;BME280;63200;48.810;12.352;2022-09-09T05:57:12;97290.94;;;10.81;76.06
74675;BME280;63200;48.810;12.352;2022-09-09T05:59:38;97278.97;;;10.82;76.43
74675;BME280;63200;48.810;12.352;2022-09-09T06:02:03;97276.94;;;10.93;76.32
74675;BME280;63200;48.810;12.352;2022-09-09T06:04:29;97279.22;;;11.05;76.04
74675;BME280;63200;48.810;12.352;2022-09-09T06:06:55;97279.75;;;11.26;75.76
74675;BME280;63200;48.810;12.352;2022-09-09T06:09:20;97265.94;;;11.42;75.15
74675;BME280;63200;48.810;12.352;2022-09-09T06:11:46;97224.88;;;11.24;75.15
74675;BME280;63200;48.810;12.352;2022-09-09T06:14:11;97261.88;;;11.58;74.94
74675;BME280;63200;48.810;12.352;2022-09-09T06:16:36;97255.00;;;12.13;73.61
74675;BME280;63200;48.810;12.352;2022-09-09T06:19:03;97270.69;;;12.49;72.79
74675;BME280;63200;48.810;12.352;2022-09-09T06:21:36;97267.97;;;13.13;71.33
74675;BME280;63200;48.810;12.352;2022-09-09T06:24:03;97278.50;;;13.57;70.40
74675;BME280;63200;48.810;12.352;2022-09-09T06:26:32;97279.34;;;13.89;69.32
74675;BME280;63200;48.810;12.352;2022-09-09T06:28:58;97277.16;;;13.68;70.52
74675;BME280;63200;48.810;12.352;2022-09-09T06:31:25;97287.53;;;13.66;70.88
74675;BME280;63200;48.810;12.352;2022-09-09T06:33:53;97299.66;;;13.74;71.43
74675;BME280;63200;48.810;12.352;2022-09-09T06:36:21;97295.47;;;13.99;70.85
74675;BME280;63200;48.810;12.352;2022-09-09T06:38:47;97279.75;;;14.27;70.04
74675;BME280;63200;48.810;12.352;2022-09-09T06:41:16;97295.59;;;14.16;70.33
74675;BME280;63200;48.810;12.352;2022-09-09T06:43:42;97288.03;;;14.13;70.83
74675;BME280;63200;48.810;12.352;2022-09-09T06:46:33;97292.69;;;13.90;70.98
74675;BME280;63200;48.810;12.352;2022-09-09T06:49:00;97288.97;;;13.86;71.69
74675;BME280;63200;48.810;12.352;2022-09-09T06:51:31;97290.94;;;13.94;71.83
74675;BME280;63200;48.810;12.352;2022-09-09T06:53:58;97297.59;;;14.33;71.37
74675;BME280;63200;48.810;12.352;2022-09-09T06:56:29;97277.66;;;15.13;68.22
74675;BME280;63200;48.810;12.352;2022-09-09T06:58:56;97312.59;;;15.78;66.72
74675;BME280;63200;48.810;12.352;2022-09-09T07:01:25;97307.34;;;15.81;65.69
74675;BME280;63200;48.810;12.352;2022-09-09T07:03:52;97280.41;;;16.01;65.30
74675;BME280;63200;48.810;12.352;2022-09-09T07:06:24;97289.09;;;16.21;65.11
74675;BME280;63200;48.810;12.352;2022-09-09T07:08:58;97284.72;;;16.20;65.43
74675;BME280;63200;48.810;12.352;2022-09-09T07:11:26;97300.03;;;16.21;66.03
74675;BME280;63200;48.810;12.352;2022-09-09T07:13:53;97301.22;;;16.49;65.67
74675;BME280;63200;48.810;12.352;2022-09-09T07:16:19;97293.69;;;16.38;66.33
74675;BME280;63200;48.810;12.352;2022-09-09T07:18:46;97294.75;;;15.98;67.72
74675;BME280;63200;48.810;12.352;2022-09-09T07:21:12;97291.84;;;16.12;68.55
74675;BME280;63200;48.810;12.352;2022-09-09T07:23:39;97278.25;;;16.33;67.33
74675;BME280;63200;48.810;12.352;2022-09-09T07:26:13;97294.28;;;16.52;66.26
74675;BME280;63200;48.810;12.352;2022-09-09T07:28:40;97294.84;;;16.75;67.44
74675;BME280;63200;48.810;12.352;2022-09-09T07:31:07;97298.19;;;17.20;65.45
74675;BME280;63200;48.810;12.352;2022-09-09T07:33:34;97301.22;;;17.48;64.61
74675;BME280;63200;48.810;12.352;2022-09-09T07:36:15;97311.28;;;17.65;63.15
74675;BME280;63200;48.810;12.352;2022-09-09T07:38:46;97238.16;;;16.97;64.17
74675;BME280;63200;48.810;12.352;2022-09-09T07:41:19;97321.31;;;17.82;63.57
74675;BME280;63200;48.810;12.352;2022-09-09T07:43:46;97304.03;;;17.60;62.80
74675;BME280;63200;48.810;12.352;2022-09-09T07:46:14;97326.00;;;17.81;62.72
74675;BME280;63200;48.810;12.352;2022-09-09T07:48:48;97327.56;;;18.25;62.12
74675;BME280;63200;48.810;12.352;2022-09-09T07:51:24;97333.75;;;18.22;61.46
74675;BME280;63200;48.810;12.352;2022-09-09T07:53:58;97348.50;;;17.75;62.39
74675;BME280;63200;48.810;12.352;2022-09-09T07:56:24;97367.47;;;17.38;64.22
74675;BME280;63200;48.810;12.352;2022-09-09T07:58:52;97376.66;;;17.12;64.40
74675;BME280;63200;48.810;12.352;2022-09-09T08:01:27;97381.22;;;16.99;63.74
74675;BME280;63200;48.810;12.352;2022-09-09T08:04:03;97380.59;;;16.93;64.23
74675;BME280;63200;48.810;12.352;2022-09-09T08:06:32;97377.88;;;16.85;64.55
74675;BME280;63200;48.810;12.352;2022-09-09T08:08:58;97363.84;;;16.77;65.50
74675;BME280;63200;48.810;12.352;2022-09-09T08:11:25;97375.81;;;16.73;66.30
74675;BME280;63200;48.810;12.352;2022-09-09T08:13:52;97377.44;;;16.65;66.79
74675;BME280;63200;48.810;12.352;2022-09-09T08:16:24;97377.88;;;16.76;65.89
74675;BME280;63200;48.810;12.352;2022-09-09T08:18:51;97374.78;;;16.86;65.89
74675;BME280;63200;48.810;12.352;2022-09-09T08:21:19;97365.28;;;16.83;67.06
74675;BME280;63200;48.810;12.352;2022-09-09T08:23:46;97362.88;;;16.91;66.56
74675;BME280;63200;48.810;12.352;2022-09-09T08:28:38;97382.69;;;16.88;66.97
74675;BME280;63200;48.810;12.352;2022-09-09T08:31:14;97375.78;;;16.90;66.64
74675;BME280;63200;48.810;12.352;2022-09-09T08:33:41;97376.75;;;16.86;67.76
74675;BME280;63200;48.810;12.352;2022-09-09T08:36:09;97378.72;;;16.76;67.28
74675;BME280;63200;48.810;12.352;2022-09-09T08:38:35;97379.22;;;16.70;66.65
74675;BME280;63200;48.810;12.352;2022-09-09T08:52:36;97374.78;;;16.21;67.29
74675;BME280;63200;48.810;12.352;2022-09-09T08:55:20;97383.13;;;16.33;67.54
74675;BME280;63200;48.810;12.352;2022-09-09T08:57:48;97364.78;;;16.25;67.65
74675;BME280;63200;48.810;12.352;2022-09-09T09:00:14;97362.84;;;16.26;67.41
74675;BME280;63200;48.810;12.352;2022-09-09T09:05:46;97372.84;;;16.22;67.67
74675;BME280;63200;48.810;12.352;2022-09-09T09:08:19;97373.50;;;16.10;67.45
74675;BME280;63200;48.810;12.352;2022-09-09T09:10:49;97372.22;;;16.07;68.60
74675;BME280;63200;48.810;12.352;2022-09-09T09:13:20;97380.25;;;16.12;68.71
74675;BME280;63200;48.810;12.352;2022-09-09T09:15:55;97384.63;;;16.13;68.46
74675;BME280;63200;48.810;12.352;2022-09-09T09:18:22;97388.16;;;16.14;68.03
74675;BME280;63200;48.810;12.352;2022-09-09T09:23:25;97380.25;;;16.12;68.29
74675;BME280;63200;48.810;12.352;2022-09-09T09:25:56;97382.66;;;16.14;68.20
74675;BME280;63200;48.810;12.352;2022-09-09T09:28:25;97334.53;;;15.87;67.52
74675;BME280;63200;48.810;12.352;2022-09-09T09:31:08;97370.75;;;16.10;68.11
74675;BME280;63200;48.810;12.352;2022-09-09T09:33:49;97366.59;;;16.04;68.77
74675;BME280;63200;48.810;12.352;2022-09-09T09:36:16;97373.97;;;16.03;69.28
74675;BME280;63200;48.810;12.352;2022-09-09T09:39:21;97364.47;;;16.01;69.33
74675;BME280;63200;48.810;12.352;2022-09-09T09:41:47;97370.13;;;15.87;70.22
74675;BME280;63200;48.810;12.352;2022-09-09T09:44:27;97369.13;;;15.74;70.67
74675;BME280;63200;48.810;12.352;2022-09-09T09:46:53;97392.97;;;15.73;71.32
74675;BME280;63200;48.810;12.352;2022-09-09T09:49:29;97391.66;;;15.71;71.82
74675;BME280;63200;48.810;12.352;2022-09-09T09:52:00;97351.91;;;15.64;71.82
74675;BME280;63200;48.810;12.352;2022-09-09T09:54:30;97376.06;;;15.89;72.05
74675;BME280;63200;48.810;12.352;2022-09-09T09:57:07;97376.41;;;15.96;72.46
74675;BME280;63200;48.810;12.352;2022-09-09T09:59:36;97375.94;;;16.11;72.42
74675;BME280;63200;48.810;12.352;2022-09-09T10:02:22;97372.03;;;16.12;73.16
74675;BME280;63200;48.810;12.352;2022-09-09T10:05:15;97353.38;;;16.23;72.20
74675;BME280;63200;48.810;12.352;2022-09-09T10:07:41;97334.06;;;15.85;73.60
74675;BME280;63200;48.810;12.352;2022-09-09T10:10:21;97355.16;;;16.02;73.44
74675;BME280;63200;48.810;12.352;2022-09-09T10:15:55;97337.72;;;16.24;72.31
74675;BME280;63200;48.810;12.352;2022-09-09T10:18:39;97335.00;;;16.15;72.79
74675;BME280;63200;48.810;12.352;2022-09-09T10:29:10;97338.56;;;16.07;73.00
74675;BME280;63200;48.810;12.352;2022-09-09T10:31:57;97335.59;;;16.38;72.17
74675;BME280;63200;48.810;12.352;2022-09-09T10:34:56;97332.88;;;16.38;71.12
74675;BME280;63200;48.810;12.352;2022-09-09T10:40:21;97332.41;;;16.27;73.40
74675;BME280;63200;48.810;12.352;2022-09-09T10:42:51;97317.09;;;16.18;73.39
74675;BME280;63200;48.810;12.352;2022-09-09T10:45:29;97330.75;;;16.35;72.60
74675;BME280;63200;48.810;12.352;2022-09-09T10:50:56;97337.19;;;16.48;72.52
74675;BME280;63200;48.810;12.352;2022-09-09T10:53:37;97337.34;;;16.52;71.36
74675;BME280;63200;48.810;12.352;2022-09-09T10:56:09;97338.97;;;16.35;72.73
74675;BME280;63200;48.810;12.352;2022-09-09T10:58:46;97338.78;;;16.58;72.40
74675;BME280;63200;48.810;12.352;2022-09-09T11:01:18;97340.38;;;16.59;71.55
74675;BME280;63200;48.810;12.352;2022-09-09T11:03:51;97345.03;;;16.67;71.85
74675;BME280;63200;48.810;12.352;2022-09-09T11:06:20;97347.44;;;16.69;71.91
74675;BME280;63200;48.810;12.352;2022-09-09T11:08:48;97332.13;;;16.68;71.47
74675;BME280;63200;48.810;12.352;2022-09-09T11:11:46;97349.63;;;16.93;69.63
74675;BME280;63200;48.810;12.352;2022-09-09T11:14:19;97360.94;;;16.91;70.57
74675;BME280;63200;48.810;12.352;2022-09-09T11:16:52;97377.03;;;16.84;72.28
74675;BME280;63200;48.810;12.352;2022-09-09T11:19:40;97371.09;;;16.91;71.34
74675;BME280;63200;48.810;12.352;2022-09-09T11:22:32;97395.19;;;17.15;70.07
74675;BME280;63200;48.810;12.352;2022-09-09T11:25:10;97378.13;;;17.09;69.73
74675;BME280;63200;48.810;12.352;2022-09-09T11:27:45;97393.44;;;17.10;69.35
74675;BME280;63200;48.810;12.352;2022-09-09T11:30:22;97394.28;;;17.02;70.72
74675;BME280;63200;48.810;12.352;2022-09-09T11:35:44;97379.44;;;17.33;70.34
74675;BME280;63200;48.810;12.352;2022-09-09T11:38:25;97374.19;;;17.49;69.14
74675;BME280;63200;48.810;12.352;2022-09-09T11:41:08;97370.06;;;17.64;67.06
74675;BME280;63200;48.810;12.352;2022-09-09T11:43:53;97384.94;;;17.84;67.09
74675;BME280;63200;48.810;12.352;2022-09-09T11:46:22;97390.84;;;17.95;66.56
74675;BME280;63200;48.810;12.352;2022-09-09T11:49:00;97393.34;;;18.09;66.43
74675;BME280;63200;48.810;12.352;2022-09-09T11:51:28;97383.38;;;18.38;65.33
74675;BME280;63200;48.810;12.352;2022-09-09T11:54:04;97386.66;;;18.52;64.67
74675;BME280;63200;48.810;12.352;2022-09-09T11:56:48;97378.44;;;18.77;62.66
74675;BME280;63200;48.810;12.352;2022-09-09T12:01:59;97390.34;;;18.81;63.05
74675;BME280;63200;48.810;12.352;2022-09-09T12:04:34;97388.38;;;18.57;64.16
74675;BME280;63200;48.810;12.352;2022-09-09T12:09:35;97388.13;;;18.50;64.08
74675;BME280;63200;48.810;12.352;2022-09-09T12:12:31;97383.41;;;18.50;65.29
74675;BME280;63200;48.810;12.352;2022-09-09T12:17:41;97372.88;;;18.98;62.83
74675;BME280;63200;48.810;12.352;2022-09-09T12:20:17;97368.00;;;18.82;63.42
74675;BME280;63200;48.810;12.352;2022-09-09T12:28:17;97353.63;;;19.35;61.33
74675;BME280;63200;48.810;12.352;2022-09-09T12:30:53;97349.81;;;19.52;60.17
74675;BME280;63200;48.810;12.352;2022-09-09T12:33:21;97347.81;;;19.77;60.56
74675;BME280;63200;48.810;12.352;2022-09-09T12:35:57;97346.81;;;20.10;60.60
74675;BME280;63200;48.810;12.352;2022-09-09T12:38:43;97335.44;;;20.40;59.37
74675;BME280;63200;48.810;12.352;2022-09-09T12:41:27;97314.13;;;21.01;57.84
74675;BME280;63200;48.810;12.352;2022-09-09T12:44:09;97337.84;;;21.54;55.50
74675;BME280;63200;48.810;12.352;2022-09-09T12:46:44;97326.63;;;21.82;53.15
74675;BME280;63200;48.810;12.352;2022-09-09T12:49:32;97330.09;;;21.99;51.56
74675;BME280;63200;48.810;12.352;2022-09-09T12:52:16;97321.66;;;21.72;55.61
74675;BME280;63200;48.810;12.352;2022-09-09T12:54:44;97318.50;;;21.38;54.06
74675;BME280;63200;48.810;12.352;2022-09-09T12:57:15;97305.66;;;20.62;54.51
74675;BME280;63200;48.810;12.352;2022-09-09T12:59:42;97316.66;;;20.46;57.79
74675;BME280;63200;48.810;12.352;2022-09-09T13:02:25;97307.66;;;20.33;56.55
74675;BME280;63200;48.810;12.352;2022-09-09T13:04:52;97303.28;;;20.76;56.97
74675;BME280;63200;48.810;12.352;2022-09-09T13:07:19;97275.22;;;21.42;54.53
74675;BME280;63200;48.810;12.352;2022-09-09T13:09:45;97296.25;;;22.44;52.96
74675;BME280;63200;48.810;12.352;2022-09-09T13:12:18;97304.44;;;22.84;52.96
74675;BME280;63200;48.810;12.352;2022-09-09T13:14:47;97285.13;;;22.21;51.28
74675;BME280;63200;48.810;12.352;2022-09-09T13:17:22;97276.41;;;22.19;51.17
74675;BME280;63200;48.810;12.352;2022-09-09T13:19:49;97294.69;;;22.04;50.65
74675;BME280;63200;48.810;12.352;2022-09-09T13:22:35;97283.25;;;21.31;53.48
74675;BME280;63200;48.810;12.352;2022-09-09T13:27:41;97269.34;;;21.08;53.52
74675;BME280;63200;48.810;12.352;2022-09-09T13:30:28;97261.94;;;21.47;53.40
74675;BME280;63200;48.810;12.352;2022-09-09T13:33:29;97256.97;;;21.92;52.35
74675;BME280;63200;48.810;12.352;2022-09-09T13:35:59;97254.66;;;22.18;51.33
74675;BME280;63200;48.810;12.352;2022-09-09T13:38:28;97252.63;;;22.14;52.12
74675;BME280;63200;48.810;12.352;2022-09-09T13:41:03;97238.09;;;22.41;51.53
74675;BME280;63200;48.810;12.352;2022-09-09T13:43:43;97239.56;;;22.81;50.28
74675;BME280;63200;48.810;12.352;2022-09-09T13:46:32;97239.25;;;22.86;47.77
74675;BME280;63200;48.810;12.352;2022-09-09T13:49:01;97234.56;;;22.90;48.40
74675;BME280;63200;48.810;12.352;2022-09-09T13:51:34;97234.16;;;23.15;48.50
74675;BME280;63200;48.810;12.352;2022-09-09T13:54:02;97232.72;;;22.98;49.88
74675;BME280;63200;48.810;12.352;2022-09-09T13:56:27;97238.91;;;23.15;48.52
74675;BME280;63200;48.810;12.352;2022-09-09T13:58:52;97237.34;;;23.17;47.77
74675;BME280;63200;48.810;12.352;2022-09-09T14:01:18;97223.88;;;23.46;46.60
74675;BME280;63200;48.810;12.352;2022-09-09T14:03:43;97221.31;;;23.60;47.08
74675;BME280;63200;48.810;12.352;2022-09-09T14:06:10;97215.44;;;22.82;47.89
74675;BME280;63200;48.810;12.352;2022-09-09T14:08:36;97229.81;;;22.91;48.60
74675;BME280;63200;48.810;12.352;2022-09-09T14:11:04;97207.53;;;22.80;47.40
74675;BME280;63200;48.810;12.352;2022-09-09T14:13:30;97226.06;;;22.53;49.07
74675;BME280;63200;48.810;12.352;2022-09-09T14:15:56;97223.22;;;22.72;48.68
74675;BME280;63200;48.810;12.352;2022-09-09T14:18:21;97230.41;;;22.77;48.46
74675;BME280;63200;48.810;12.352;2022-09-09T14:20:48;97225.34;;;22.13;50.50
74675;BME280;63200;48.810;12.352;2022-09-09T14:23:15;97225.69;;;21.88;51.63
74675;BME280;63200;48.810;12.352;2022-09-09T14:25:44;97230.00;;;22.09;52.10
74675;BME280;63200;48.810;12.352;2022-09-09T14:28:11;97232.16;;;22.19;51.97
74675;BME280;63200;48.810;12.352;2022-09-09T14:30:39;97234.84;;;22.58;50.23
74675;BME280;63200;48.810;12.352;2022-09-09T14:33:05;97229.50;;;22.69;48.68
74675;BME280;63200;48.810;12.352;2022-09-09T14:35:30;97213.91;;;22.14;49.00
74675;BME280;63200;48.810;12.352;2022-09-09T14:37:56;97231.63;;;22.10;51.27
74675;BME280;63200;48.810;12.352;2022-09-09T14:40:21;97222.72;;;22.43;49.26
74675;BME280;63200;48.810;12.352;2022-09-09T14:42:47;97225.66;;;22.31;50.81
74675;BME280;63200;48.810;12.352;2022-09-09T14:45:12;97227.63;;;22.07;50.10